createdAt,value
2023-02-18T00:00:43.177Z,10.50
2023-02-18T00:03:46.108Z,12.00
2023-02-18T00:06:48.114Z,10.50
2023-02-18T00:09:49.856Z,10.60
2023-02-18T00:12:53.038Z,10.60
2023-02-18T00:15:54.875Z,11.10
2023-02-18T00:18:58.844Z,11.90
2023-02-18T00:22:00.631Z,11.80
2023-02-18T00:25:02.820Z,10.60
2023-02-18T00:28:04.806Z,11.90
2023-02-18T00:31:12.262Z,10.50
2023-02-18T00:34:14.466Z,10.60
2023-02-18T00:37:16.369Z,10.50
2023-02-18T00:40:18.401Z,11.40
2023-02-18T00:43:20.237Z,10.50
2023-02-18T00:46:23.218Z,10.60
2023-02-18T00:49:25.170Z,10.60
2023-02-18T00:52:26.975Z,10.50
2023-02-18T00:55:28.785Z,10.60
2023-02-18T00:58:30.657Z,10.50
2023-02-18T01:01:32.479Z,10.60
2023-02-18T01:04:34.846Z,10.50
2023-02-18T01:11:14.261Z,10.50
2023-02-18T01:14:15.968Z,10.50
2023-02-18T01:17:18.967Z,10.50
2023-02-18T01:20:20.870Z,10.50
2023-02-18T01:23:23.149Z,10.50
2023-02-18T01:26:24.961Z,10.40
2023-02-18T01:36:35.763Z,10.40
2023-02-18T01:39:37.491Z,10.40
2023-02-18T01:42:41.610Z,10.40
2023-02-18T01:46:03.599Z,10.30
2023-02-18T01:49:06.728Z,10.30
2023-02-18T01:59:15.724Z,10.30
2023-02-18T02:02:20.110Z,10.30
2023-02-18T02:05:22.358Z,10.30
2023-02-18T02:08:24.194Z,10.30
2023-02-18T02:11:43.847Z,10.30
2023-02-18T02:14:59.381Z,10.30
2023-02-18T02:21:35.632Z,10.30
2023-02-18T02:24:59.414Z,10.30
2023-02-18T02:28:16.876Z,10.30
2023-02-18T02:35:16.171Z,10.30
2023-02-18T02:38:31.127Z,10.30
2023-02-18T02:42:20.403Z,10.30
2023-02-18T02:45:29.501Z,10.30
2023-02-18T02:48:50.254Z,10.30
2023-02-18T02:52:05.642Z,10.30
2023-02-18T02:55:11.629Z,10.30
2023-02-18T02:58:18.653Z,10.30
2023-02-18T03:05:18.901Z,10.30
2023-02-18T03:08:46.604Z,10.30
2023-02-18T03:12:06.448Z,10.30
2023-02-18T03:15:42.271Z,10.30
2023-02-18T03:18:50.257Z,10.30
2023-02-18T03:22:11.194Z,10.30
2023-02-18T03:25:14.870Z,10.30
2023-02-18T03:31:53.361Z,10.30
2023-02-18T03:35:00.681Z,10.20
2023-02-18T03:38:05.547Z,10.20
2023-02-18T03:41:07.480Z,10.20
2023-02-18T03:44:12.033Z,10.30
2023-02-18T03:47:13.921Z,10.20
2023-02-18T03:50:16.483Z,10.30
2023-02-18T03:53:18.870Z,10.30
2023-02-18T03:56:21.462Z,10.30
2023-02-18T03:59:23.270Z,10.30
2023-02-18T04:02:25.082Z,10.40
2023-02-18T04:05:27.002Z,10.30
2023-02-18T04:08:29.058Z,10.40
2023-02-18T04:11:30.890Z,10.30
2023-02-18T04:14:32.682Z,10.30
2023-02-18T04:17:34.783Z,10.30
2023-02-18T04:20:37.370Z,10.40
2023-02-18T04:23:39.189Z,10.30
2023-02-18T04:26:41.207Z,10.30
2023-02-18T04:29:43.133Z,10.20
2023-02-18T04:32:45.000Z,10.30
2023-02-18T04:43:03.198Z,10.30
2023-02-18T04:49:36.116Z,10.20
2023-02-18T04:52:37.954Z,10.30
2023-02-18T04:55:39.842Z,10.20
2023-02-18T04:58:41.640Z,10.30
2023-02-18T05:09:13.810Z,10.30
2023-02-18T05:15:53.094Z,10.30
2023-02-18T05:29:08.000Z,10.20
2023-02-18T05:32:09.806Z,10.30
2023-02-18T05:35:11.670Z,10.30
2023-02-18T05:53:08.446Z,10.20
2023-02-18T06:28:48.053Z,10.20
2023-02-18T06:31:50.069Z,10.20
2023-02-18T07:41:34.090Z,10.10
2023-02-18T07:44:37.203Z,10.20
2023-02-18T07:47:39.132Z,10.20
2023-02-18T07:50:42.152Z,10.20
2023-02-18T07:53:44.843Z,10.20
2023-02-18T10:25:46.510Z,9.70
2023-02-18T10:28:48.757Z,9.80
2023-02-18T10:32:21.281Z,9.80
2023-02-18T10:35:37.449Z,9.90
2023-02-18T11:22:28.331Z,9.60
2023-02-18T11:25:36.663Z,9.80
2023-02-18T11:28:45.861Z,9.80
2023-02-18T11:31:51.046Z,9.70
2023-02-18T11:34:53.380Z,9.70
2023-02-18T11:48:31.446Z,9.70
2023-02-18T12:23:51.690Z,9.40
2023-02-18T12:26:59.424Z,9.50
2023-02-18T12:30:39.783Z,9.50
2023-02-18T12:34:03.243Z,9.60
2023-02-18T13:47:39.941Z,9.90
2023-02-18T13:50:43.493Z,10.00
2023-02-18T13:53:51.931Z,10.00
2023-02-18T13:57:06.233Z,10.10
2023-02-18T14:00:20.776Z,10.00
2023-02-18T14:47:49.086Z,10.60
2023-02-18T14:50:52.850Z,10.70
2023-02-18T14:53:54.790Z,10.80
2023-02-18T14:57:00.473Z,10.70
2023-02-18T15:53:25.785Z,10.30
2023-02-18T15:56:38.914Z,10.40
2023-02-18T15:59:55.917Z,10.40
2023-02-18T16:03:23.246Z,10.30
2023-02-18T16:16:54.630Z,10.40
2023-02-18T17:05:47.204Z,10.30
2023-02-18T17:08:49.398Z,10.20
2023-02-18T17:11:53.692Z,10.20
2023-02-18T17:14:55.427Z,10.20
2023-02-18T18:02:43.299Z,10.20
2023-02-18T18:05:49.156Z,10.10
2023-02-18T18:08:51.043Z,10.10
2023-02-18T18:11:52.751Z,10.10
2023-02-18T19:14:41.049Z,10.10
2023-02-18T19:54:27.852Z,10.10
2023-02-18T20:04:45.284Z,10.10
2023-02-18T20:33:09.945Z,10.10
2023-02-18T21:00:59.340Z,9.90
2023-02-18T21:33:05.630Z,8.70
2023-02-18T21:43:00.773Z,9.90
2023-02-18T21:46:13.352Z,9.90
2023-02-18T21:52:46.172Z,10.00
2023-02-18T21:56:02.999Z,9.90
2023-02-18T22:02:36.142Z,10.00
2023-02-18T22:09:08.601Z,10.00
2023-02-18T22:36:41.433Z,10.00
2023-02-18T22:39:43.261Z,10.00
2023-02-18T22:53:26.572Z,10.00
2023-02-18T23:06:53.226Z,10.00
2023-02-18T23:09:55.076Z,10.00
2023-02-18T23:16:28.129Z,10.00
2023-02-18T23:19:32.061Z,10.10
2023-02-18T23:22:33.897Z,10.00
2023-02-18T23:25:35.663Z,10.00
2023-02-18T23:28:49.512Z,9.90
2023-02-18T23:31:51.374Z,9.90
2023-02-18T23:34:53.183Z,9.90
2023-02-18T23:38:03.749Z,9.90
2023-02-18T23:41:06.603Z,9.90
2023-02-18T23:44:11.899Z,10.00
2023-02-18T23:47:13.587Z,10.00
2023-02-18T23:50:18.883Z,10.00
2023-02-18T23:53:20.634Z,9.90
2023-02-18T23:56:24.974Z,10.00
2023-02-18T23:59:26.746Z,10.00
